ADDS METAR Data INFO
IDs: Format: Raw Decoded Include TAF

Data at: 1755 UTC 15 Dec 2017

K7W4 151735Z AUTO 36003KT 10SM OVC024 00/M08 A2995 RMK AO1 T10051085
K7W4 151715Z AUTO 00000KT 10SM OVC024 00/M09 A2996 RMK AO1 T10051086
K7W4 151655Z AUTO 00000KT 10SM OVC026 00/M08 A2997 RMK AO1 T10051081
K7W4 151635Z AUTO 01003KT 10SM OVC028 M01/M09 A3000 RMK AO1 T10071086
K7W4 151615Z AUTO 00000KT 10SM OVC028 M01/M09 A3000 RMK AO1 T10081088
K7W4 151555Z AUTO 06003KT 10SM OVC030 M01/M09 A3002 RMK AO1 T10101090
K7W4 151535Z AUTO 03003KT 10SM OVC032 M01/M09 A3003 RMK AO1 T10091090
K7W4 151515Z AUTO 00000KT 10SM OVC032 M01/M09 A3005 RMK AO1 T10101088
K7W4 151455Z AUTO 00000KT 10SM OVC032 M01/M09 A3005 RMK AO1 T10101088
K7W4 151435Z AUTO 00000KT 10SM OVC030 M01/M09 A3005 RMK AO1 T10101089
K7W4 151415Z AUTO 00000KT 10SM OVC030 M01/M09 A3005 RMK AO1 T10111091
K7W4 151355Z AUTO 00000KT 10SM OVC028 M01/M09 A3005 RMK AO1 T10121092
K7W4 151335Z AUTO 03003KT 10SM OVC028 M01/M09 A3005 RMK AO1 T10131092
K7W4 151315Z AUTO 00000KT 10SM OVC030 M01/M09 A3005 RMK AO1 T10131094
K7W4 151255Z AUTO 04003KT 10SM OVC034 M01/M10 A3006 RMK AO1 T10151096
K7W4 151235Z AUTO 00000KT 10SM OVC036 M01/M10 A3007 RMK AO1 T10151096
K7W4 151215Z AUTO 06003KT 10SM BKN036 OVC070 M01/M10 A3007 RMK AO1 T10151100
K7W4 151155Z AUTO 04004KT 10SM OVC070 M01/M10 A3007 RMK AO1 T10131100 11011 21020
K7W4 151135Z AUTO 00000KT 10SM OVC070 M01/M10 A3008 RMK AO1 T10121103
K7W4 151115Z AUTO 00000KT 10SM OVC070 M01/M10 A3008 RMK AO1 T10131101
K7W4 151055Z AUTO 00000KT 10SM OVC080 M01/M10 A3007 RMK AO1 T10131102
K7W4 151035Z AUTO 00000KT 10SM OVC080 M01/M10 A3007 RMK AO1 T10131103
K7W4 151015Z AUTO 00000KT 10SM SCT060 OVC080 M01/M10 A3009 RMK AO1 T10131105
K7W4 150955Z AUTO 00000KT 10SM SCT060 OVC080 M01/M11 A3009 RMK AO1 T10131108
K7W4 150935Z AUTO 00000KT 10SM OVC080 M01/M11 A3009 RMK AO1 T10131110
K7W4 150915Z AUTO 00000KT 10SM OVC080 M01/M11 A3010 RMK AO1 T10121111
K7W4 150855Z AUTO 00000KT 10SM SCT050 OVC080 M01/M11 A3010 RMK AO1 T10121106
K7W4 150835Z AUTO 00000KT 10SM SCT050 SCT055 OVC080 M01/M10 A3010 RMK AO1 T10121100
K7W4 150815Z AUTO 00000KT 10SM BKN055 OVC070 M01/M10 A3011 RMK AO1 T10121098
K7W4 150755Z AUTO 00000KT 10SM BKN055 OVC080 M01/M10 A3011 RMK AO1 T10121096
K7W4 150735Z AUTO 03003KT 10SM SCT055 OVC080 M01/M09 A3010 RMK AO1 T10151090
K7W4 150715Z AUTO 00000KT 10SM BKN080 M02/M08 A3010 RMK AO1 T10161083
K7W4 150655Z AUTO 00000KT 10SM SCT080 M02/M08 A3010 RMK AO1 T10161079
K7W4 150635Z AUTO 00000KT 10SM CLR M02/M08 A3010 RMK AO1 T10171081
K7W4 150615Z AUTO 00000KT 10SM CLR M02/M08 A3010 RMK AO1 T10171079
K7W4 150555Z AUTO 00000KT 10SM CLR M02/M08 A3010 RMK AO1 T10191083 10009 21025
K7W4 150535Z AUTO 00000KT 10SM CLR M02/M07 A3010 RMK AO1 T10231073
K7W4 150515Z AUTO 00000KT 10SM CLR M02/M08 A3010 RMK AO1 T10221080
K7W4 150455Z AUTO 00000KT 10SM CLR M02/M08 A3010 RMK AO1 T10211083 400881024
K7W4 150435Z AUTO 00000KT 10SM CLR M02/M08 A3010 RMK AO1 T10171084
K7W4 150415Z AUTO 00000KT 10SM CLR M01/M08 A3010 RMK AO1 T10151084
K7W4 150355Z AUTO 00000KT 10SM CLR M01/M09 A3010 RMK AO1 T10111086
K7W4 150335Z AUTO 00000KT 10SM CLR M01/M08 A3009 RMK AO1 T10091085
K7W4 150315Z AUTO 00000KT 10SM CLR 00/M08 A3008 RMK AO1 T10051085
K7W4 150255Z AUTO 00000KT 10SM CLR 00/M08 A3007 RMK AO1 T00001084
K7W4 150235Z AUTO 00000KT 10SM CLR 00/M08 A3008 RMK AO1 T00001084
K7W4 150215Z AUTO 00000KT 10SM CLR 00/M08 A3007 RMK AO1 T00001085
K7W4 150155Z AUTO 00000KT 10SM CLR 00/M08 A3007 RMK AO1 T00011083
K7W4 150135Z AUTO 00000KT 10SM CLR 00/M08 A3006 RMK AO1 T00041082
K7W4 150115Z AUTO 05003KT 10SM CLR 01/M08 A3005 RMK AO1 T00051083
K7W4 150055Z AUTO 00000KT 10SM CLR 00/M08 A3004 RMK AO1 T00041084
K7W4 150035Z AUTO 05003KT 10SM CLR 01/M08 A3003 RMK AO1 T00051085
K7W4 150015Z AUTO 00000KT 10SM CLR 00/M09 A3002 RMK AO1 T00021088
K7W4 142355Z AUTO 00000KT 10SM CLR 01/M08 A3002 RMK AO1 T00061085 10084 21006
K7W4 142335Z AUTO 00000KT 10SM CLR 00/M07 A3000 RMK AO1 T10041067
K7W4 142315Z AUTO 00000KT 10SM CLR 01/M07 A2999 RMK AO1 T00061073
K7W4 142255Z AUTO 00000KT 10SM CLR 01/M07 A2998 RMK AO1 T00091068
K7W4 142235Z AUTO 00000KT 10SM CLR 02/M07 A2997 RMK AO1 T00151070
K7W4 142215Z AUTO 00000KT 10SM CLR 00/M06 A2996 RMK AO1 T00031062
K7W4 142155Z AUTO 09003KT 10SM CLR 02/M06 A2995 RMK AO1 T00171061
K7W4 142135Z AUTO 11003KT 10SM CLR 03/M07 A2994 RMK AO1 T00261067
K7W4 142115Z AUTO 12003KT 10SM CLR 04/M07 A2992 RMK AO1 T00361070
K7W4 142055Z AUTO 04003KT 10SM CLR 04/M07 A2991 RMK AO1 T00431068
K7W4 142035Z AUTO 35004KT 10SM CLR 05/M06 A2990 RMK AO1 T00471065
K7W4 142015Z AUTO 34005KT 10SM CLR 05/M07 A2990 RMK AO1 T00531066
K7W4 141955Z AUTO 01004KT 10SM SCT060 06/M07 A2989 RMK AO1 T00591070
K7W4 141935Z AUTO 36005KT 10SM SCT060 07/M07 A2988 RMK AO1 T00661070
K7W4 141915Z AUTO 01007KT 290V020 10SM BKN060 07/M07 A2987 RMK AO1 T00721075
K7W4 141855Z AUTO 27004KT 10SM BKN060 07/M07 A2986 RMK AO1 T00731075
K7W4 141835Z AUTO 31006KT 280V350 10SM SCT060 08/M07 A2984 RMK AO1 T00761073
K7W4 141815Z AUTO 06005KT 10SM BKN060 08/M07 A2984 RMK AO1 T00791075
K7W4 141755Z AUTO 02004KT 10SM SCT060 07/M07 A2983 RMK AO1 T00731073 10088 20025
K7W4 141735Z AUTO 29005KT 10SM SCT060 08/M08 A2983 RMK AO1 T00771076
K7W4 141715Z AUTO 32007KT 280V010 10SM CLR 08/M08 A2982 RMK AO1 T00801081
K7W4 141655Z AUTO 31007KT 10SM SCT065 08/M08 A2984 RMK AO1 T00801084
K7W4 141635Z AUTO 30009G16KT 10SM BKN065 08/M08 A2983 RMK AO1 T00841077
K7W4 141615Z AUTO 34004KT 10SM SCT065 07/M07 A2983 RMK AO1 T00701071
K7W4 141555Z AUTO 32009KT 280V010 10SM SCT055 OVC065 09/M07 A2981 RMK AO1 T00881069
K7W4 141535Z AUTO 27006G18KT 10SM SCT055 BKN065 08/M07 A2980 RMK AO1 T00781071
K7W4 141515Z AUTO 27009G16KT 10SM SCT065 07/M07 A2979 RMK AO1 T00691069
K7W4 141455Z AUTO 26004KT 10SM OVC065 06/M07 A2977 RMK AO1 T00591070
K7W4 141435Z AUTO 26004KT 10SM OVC065 05/M07 A2975 RMK AO1 T00481074
K7W4 141415Z AUTO 24004KT 10SM OVC065 04/M08 A2974 RMK AO1 T00411076
K7W4 141355Z AUTO 24005KT 10SM OVC065 03/M08 A2972 RMK AO1 T00331076
K7W4 141335Z AUTO 26004KT 10SM OVC065 03/M08 A2970 RMK AO1 T00341079
K7W4 141315Z AUTO 24006KT 10SM OVC075 03/M08 A2968 RMK AO1 T00311078
K7W4 141255Z AUTO 25006KT 10SM OVC075 03/M08 A2966 RMK AO1 T00271083
K7W4 141235Z AUTO 25007KT 10SM OVC075 03/M08 A2965 RMK AO1 T00261084
K7W4 141215Z AUTO 22006KT 10SM OVC075 03/M08 A2962 RMK AO1 T00261084
K7W4 141155Z AUTO 23006KT 10SM OVC085 03/M09 A2960 RMK AO1 T00251086 10025 20007
K7W4 141135Z AUTO 22008KT 10SM SCT085 02/M09 A2959 RMK AO1 T00241090
K7W4 141115Z AUTO 21008G14KT 10SM CLR 02/M09 A2958 RMK AO1 T00221090
K7W4 141055Z AUTO 21008KT 10SM CLR 02/M09 A2957 RMK AO1 T00201090
K7W4 141035Z AUTO 21007KT 10SM SCT080 02/M09 A2956 RMK AO1 T00201090
K7W4 141015Z AUTO 21007KT 10SM SCT080 02/M09 A2956 RMK AO1 T00211091
K7W4 140955Z AUTO 21009G14KT 10SM CLR 02/M09 A2956 RMK AO1 T00201091
K7W4 140935Z AUTO 21008KT 10SM CLR 02/M09 A2954 RMK AO1 T00171091
K7W4 140915Z AUTO 21007KT 10SM CLR 02/M09 A2954 RMK AO1 T00151091
K7W4 140855Z AUTO 21007KT 10SM CLR 01/M09 A2955 RMK AO1 T00101092
K7W4 140835Z AUTO 19006KT 10SM CLR 01/M09 A2954 RMK AO1 T00101095
K7W4 140815Z AUTO 21006KT 160V220 10SM CLR 01/M09 A2955 RMK AO1 T00101095
K7W4 140755Z AUTO 20005KT 10SM CLR 01/M09 A2955 RMK AO1 T00101095
K7W4 140735Z AUTO 20005KT 10SM CLR 01/M10 A2955 RMK AO1 T00091097
K7W4 140715Z AUTO 19007KT 10SM SCT080 01/M10 A2955 RMK AO1 T00101098
K7W4 140655Z AUTO 20007KT 10SM SCT080 01/M10 A2955 RMK AO1 T00091099
K7W4 140635Z AUTO 19006KT 10SM SCT080 01/M10 A2955 RMK AO1 T00091101
K7W4 140615Z AUTO 18005KT 10SM SCT080 01/M10 A2956 RMK AO1 T00091103